sensor_id;sensor_type;location;lat;lon;timestamp;P1;durP1;ratioP1;P2;durP2;ratioP2
50002;SDS011;35889;51.442;6.408;2022-09-09T00:00:13;0.63;;;0.63;;
50002;SDS011;35889;51.442;6.408;2022-09-09T00:02:41;0.65;;;0.65;;
50002;SDS011;35889;51.442;6.408;2022-09-09T00:05:20;0.60;;;0.60;;
50002;SDS011;35889;51.442;6.408;2022-09-09T00:07:57;0.60;;;0.60;;
50002;SDS011;35889;51.442;6.408;2022-09-09T00:10:37;0.60;;;0.60;;
50002;SDS011;35889;51.442;6.408;2022-09-09T00:21:24;0.70;;;0.70;;
50002;SDS011;35889;51.442;6.408;2022-09-09T00:23:57;0.70;;;0.70;;
50002;SDS011;35889;51.442;6.408;2022-09-09T00:29:05;0.70;;;0.70;;
50002;SDS011;35889;51.442;6.408;2022-09-09T00:31:38;0.68;;;0.68;;
50002;SDS011;35889;51.442;6.408;2022-09-09T00:34:14;0.70;;;0.70;;
50002;SDS011;35889;51.442;6.408;2022-09-09T00:36:46;0.60;;;0.60;;
50002;SDS011;35889;51.442;6.408;2022-09-09T00:39:24;0.60;;;0.60;;
50002;SDS011;35889;51.442;6.408;2022-09-09T00:42:01;0.60;;;0.60;;
50002;SDS011;35889;51.442;6.408;2022-09-09T00:44:30;0.60;;;0.60;;
50002;SDS011;35889;51.442;6.408;2022-09-09T00:47:12;0.60;;;0.60;;
50002;SDS011;35889;51.442;6.408;2022-09-09T00:55:25;0.60;;;0.60;;
50002;SDS011;35889;51.442;6.408;2022-09-09T00:57:57;0.63;;;0.63;;
50002;SDS011;35889;51.442;6.408;2022-09-09T01:03:06;0.60;;;0.60;;
50002;SDS011;35889;51.442;6.408;2022-09-09T01:08:18;0.60;;;0.60;;
50002;SDS011;35889;51.442;6.408;2022-09-09T01:11:07;0.70;;;0.70;;
50002;SDS011;35889;51.442;6.408;2022-09-09T01:13:37;0.70;;;0.70;;
50002;SDS011;35889;51.442;6.408;2022-09-09T01:16:08;0.70;;;0.70;;
50002;SDS011;35889;51.442;6.408;2022-09-09T01:18:39;0.70;;;0.70;;
50002;SDS011;35889;51.442;6.408;2022-09-09T01:26:45;0.70;;;0.70;;
50002;SDS011;35889;51.442;6.408;2022-09-09T01:29:20;0.60;;;0.60;;
50002;SDS011;35889;51.442;6.408;2022-09-09T01:31:54;0.63;;;0.63;;
50002;SDS011;35889;51.442;6.408;2022-09-09T01:34:25;0.70;;;0.70;;
50002;SDS011;35889;51.442;6.408;2022-09-09T01:37:02;0.60;;;0.60;;
50002;SDS011;35889;51.442;6.408;2022-09-09T01:39:32;0.70;;;0.70;;
50002;SDS011;35889;51.442;6.408;2022-09-09T01:42:04;0.70;;;0.70;;
50002;SDS011;35889;51.442;6.408;2022-09-09T01:44:32;0.60;;;0.60;;
50002;SDS011;35889;51.442;6.408;2022-09-09T01:46:59;0.70;;;0.70;;
50002;SDS011;35889;51.442;6.408;2022-09-09T01:49:24;0.70;;;0.70;;
50002;SDS011;35889;51.442;6.408;2022-09-09T01:51:51;0.65;;;0.65;;
50002;SDS011;35889;51.442;6.408;2022-09-09T01:54:24;0.60;;;0.60;;
50002;SDS011;35889;51.442;6.408;2022-09-09T01:57:09;0.70;;;0.70;;
50002;SDS011;35889;51.442;6.408;2022-09-09T02:00:00;0.65;;;0.65;;
50002;SDS011;35889;51.442;6.408;2022-09-09T02:05:42;0.60;;;0.60;;
50002;SDS011;35889;51.442;6.408;2022-09-09T02:08:23;0.70;;;0.70;;
50002;SDS011;35889;51.442;6.408;2022-09-09T02:11:23;0.60;;;0.60;;
50002;SDS011;35889;51.442;6.408;2022-09-09T02:14:08;0.60;;;0.60;;
50002;SDS011;35889;51.442;6.408;2022-09-09T02:16:45;0.60;;;0.60;;
50002;SDS011;35889;51.442;6.408;2022-09-09T02:19:16;0.63;;;0.63;;
50002;SDS011;35889;51.442;6.408;2022-09-09T02:21:59;0.70;;;0.70;;
50002;SDS011;35889;51.442;6.408;2022-09-09T02:24:26;0.60;;;0.60;;
50002;SDS011;35889;51.442;6.408;2022-09-09T02:27:06;0.60;;;0.60;;
50002;SDS011;35889;51.442;6.408;2022-09-09T02:29:34;0.60;;;0.60;;
50002;SDS011;35889;51.442;6.408;2022-09-09T02:32:02;0.60;;;0.60;;
50002;SDS011;35889;51.442;6.408;2022-09-09T02:34:36;0.60;;;0.60;;
50002;SDS011;35889;51.442;6.408;2022-09-09T02:37:06;0.60;;;0.60;;
50002;SDS011;35889;51.442;6.408;2022-09-09T02:39:34;0.68;;;0.68;;
50002;SDS011;35889;51.442;6.408;2022-09-09T02:42:00;0.60;;;0.60;;
50002;SDS011;35889;51.442;6.408;2022-09-09T02:44:30;0.60;;;0.60;;
50002;SDS011;35889;51.442;6.408;2022-09-09T02:55:18;0.70;;;0.70;;
50002;SDS011;35889;51.442;6.408;2022-09-09T02:57:51;0.70;;;0.70;;
50002;SDS011;35889;51.442;6.408;2022-09-09T03:00:25;0.60;;;0.60;;
50002;SDS011;35889;51.442;6.408;2022-09-09T03:02:53;0.60;;;0.60;;
50002;SDS011;35889;51.442;6.408;2022-09-09T03:05:22;0.70;;;0.70;;
50002;SDS011;35889;51.442;6.408;2022-09-09T03:07:48;0.70;;;0.70;;
50002;SDS011;35889;51.442;6.408;2022-09-09T03:10:17;0.60;;;0.60;;
50002;SDS011;35889;51.442;6.408;2022-09-09T03:12:42;0.70;;;0.70;;
50002;SDS011;35889;51.442;6.408;2022-09-09T03:15:08;0.60;;;0.60;;
50002;SDS011;35889;51.442;6.408;2022-09-09T03:17:35;0.63;;;0.63;;
50002;SDS011;35889;51.442;6.408;2022-09-09T03:20:01;0.60;;;0.60;;
50002;SDS011;35889;51.442;6.408;2022-09-09T03:22:28;0.70;;;0.70;;
50002;SDS011;35889;51.442;6.408;2022-09-09T03:24:57;0.60;;;0.60;;
50002;SDS011;35889;51.442;6.408;2022-09-09T03:27:22;0.60;;;0.60;;
50002;SDS011;35889;51.442;6.408;2022-09-09T03:29:49;0.70;;;0.70;;
50002;SDS011;35889;51.442;6.408;2022-09-09T03:32:20;0.70;;;0.70;;
50002;SDS011;35889;51.442;6.408;2022-09-09T03:34:48;0.70;;;0.70;;
50002;SDS011;35889;51.442;6.408;2022-09-09T03:37:20;0.70;;;0.70;;
50002;SDS011;35889;51.442;6.408;2022-09-09T03:39:49;0.60;;;0.60;;
50002;SDS011;35889;51.442;6.408;2022-09-09T03:42:15;0.70;;;0.70;;
50002;SDS011;35889;51.442;6.408;2022-09-09T03:44:48;0.60;;;0.60;;
50002;SDS011;35889;51.442;6.408;2022-09-09T03:47:17;0.60;;;0.60;;
50002;SDS011;35889;51.442;6.408;2022-09-09T03:49:43;0.60;;;0.60;;
50002;SDS011;35889;51.442;6.408;2022-09-09T03:52:09;0.60;;;0.60;;
50002;SDS011;35889;51.442;6.408;2022-09-09T03:54:35;0.70;;;0.70;;
50002;SDS011;35889;51.442;6.408;2022-09-09T03:57:00;0.60;;;0.60;;
50002;SDS011;35889;51.442;6.408;2022-09-09T03:59:26;0.70;;;0.70;;
50002;SDS011;35889;51.442;6.408;2022-09-09T04:01:52;0.60;;;0.60;;
50002;SDS011;35889;51.442;6.408;2022-09-09T04:04:18;0.60;;;0.60;;
50002;SDS011;35889;51.442;6.408;2022-09-09T04:06:45;0.60;;;0.60;;
50002;SDS011;35889;51.442;6.408;2022-09-09T04:09:11;0.60;;;0.60;;
50002;SDS011;35889;51.442;6.408;2022-09-09T04:11:36;0.70;;;0.70;;
50002;SDS011;35889;51.442;6.408;2022-09-09T04:14:02;0.70;;;0.70;;
50002;SDS011;35889;51.442;6.408;2022-09-09T04:16:29;0.70;;;0.70;;
50002;SDS011;35889;51.442;6.408;2022-09-09T04:18:54;0.70;;;0.70;;
50002;SDS011;35889;51.442;6.408;2022-09-09T04:21:21;0.60;;;0.60;;
50002;SDS011;35889;51.442;6.408;2022-09-09T04:23:46;0.60;;;0.60;;
50002;SDS011;35889;51.442;6.408;2022-09-09T04:26:12;0.60;;;0.60;;
50002;SDS011;35889;51.442;6.408;2022-09-09T04:28:38;0.60;;;0.60;;
50002;SDS011;35889;51.442;6.408;2022-09-09T04:31:10;0.60;;;0.60;;
50002;SDS011;35889;51.442;6.408;2022-09-09T04:33:40;0.60;;;0.60;;
50002;SDS011;35889;51.442;6.408;2022-09-09T04:36:06;0.63;;;0.63;;
50002;SDS011;35889;51.442;6.408;2022-09-09T04:38:32;0.60;;;0.60;;
50002;SDS011;35889;51.442;6.408;2022-09-09T04:40:57;0.60;;;0.60;;
50002;SDS011;35889;51.442;6.408;2022-09-09T04:43:24;0.60;;;0.60;;
50002;SDS011;35889;51.442;6.408;2022-09-09T04:45:51;0.60;;;0.60;;
50002;SDS011;35889;51.442;6.408;2022-09-09T04:48:19;0.60;;;0.60;;
50002;SDS011;35889;51.442;6.408;2022-09-09T04:50:53;0.70;;;0.70;;
50002;SDS011;35889;51.442;6.408;2022-09-09T04:53:20;0.60;;;0.60;;
50002;SDS011;35889;51.442;6.408;2022-09-09T04:55:45;0.60;;;0.60;;
50002;SDS011;35889;51.442;6.408;2022-09-09T04:58:11;0.65;;;0.65;;
50002;SDS011;35889;51.442;6.408;2022-09-09T05:00:37;0.60;;;0.60;;
50002;SDS011;35889;51.442;6.408;2022-09-09T05:03:06;0.60;;;0.60;;
50002;SDS011;35889;51.442;6.408;2022-09-09T05:05:34;0.63;;;0.63;;
50002;SDS011;35889;51.442;6.408;2022-09-09T05:08:03;0.70;;;0.70;;
50002;SDS011;35889;51.442;6.408;2022-09-09T05:10:30;0.50;;;0.50;;
50002;SDS011;35889;51.442;6.408;2022-09-09T05:12:57;0.60;;;0.60;;
50002;SDS011;35889;51.442;6.408;2022-09-09T05:15:25;0.60;;;0.60;;
50002;SDS011;35889;51.442;6.408;2022-09-09T05:17:51;0.60;;;0.60;;
50002;SDS011;35889;51.442;6.408;2022-09-09T05:20:19;0.70;;;0.70;;
50002;SDS011;35889;51.442;6.408;2022-09-09T05:22:45;0.60;;;0.60;;
50002;SDS011;35889;51.442;6.408;2022-09-09T05:25:10;0.65;;;0.65;;
50002;SDS011;35889;51.442;6.408;2022-09-09T05:27:36;0.70;;;0.70;;
50002;SDS011;35889;51.442;6.408;2022-09-09T05:30:03;0.60;;;0.60;;
50002;SDS011;35889;51.442;6.408;2022-09-09T05:32:29;0.70;;;0.70;;
50002;SDS011;35889;51.442;6.408;2022-09-09T05:34:57;0.60;;;0.60;;
50002;SDS011;35889;51.442;6.408;2022-09-09T05:37:23;0.70;;;0.70;;
50002;SDS011;35889;51.442;6.408;2022-09-09T05:39:49;0.70;;;0.70;;
50002;SDS011;35889;51.442;6.408;2022-09-09T05:42:16;0.70;;;0.70;;
50002;SDS011;35889;51.442;6.408;2022-09-09T05:44:43;0.65;;;0.65;;
50002;SDS011;35889;51.442;6.408;2022-09-09T05:47:10;0.60;;;0.60;;
50002;SDS011;35889;51.442;6.408;2022-09-09T05:49:35;0.63;;;0.63;;
50002;SDS011;35889;51.442;6.408;2022-09-09T05:52:01;0.60;;;0.60;;
50002;SDS011;35889;51.442;6.408;2022-09-09T05:54:29;0.68;;;0.68;;
50002;SDS011;35889;51.442;6.408;2022-09-09T05:56:55;0.63;;;0.63;;
50002;SDS011;35889;51.442;6.408;2022-09-09T05:59:20;0.70;;;0.70;;
50002;SDS011;35889;51.442;6.408;2022-09-09T06:01:46;0.70;;;0.70;;
50002;SDS011;35889;51.442;6.408;2022-09-09T06:04:20;0.70;;;0.70;;
50002;SDS011;35889;51.442;6.408;2022-09-09T06:06:49;0.70;;;0.70;;
50002;SDS011;35889;51.442;6.408;2022-09-09T06:09:17;0.70;;;0.70;;
50002;SDS011;35889;51.442;6.408;2022-09-09T06:11:43;0.70;;;0.70;;
50002;SDS011;35889;51.442;6.408;2022-09-09T06:14:10;0.60;;;0.60;;
50002;SDS011;35889;51.442;6.408;2022-09-09T06:16:36;0.60;;;0.60;;
50002;SDS011;35889;51.442;6.408;2022-09-09T06:19:05;0.60;;;0.60;;
50002;SDS011;35889;51.442;6.408;2022-09-09T06:21:36;0.60;;;0.60;;
50002;SDS011;35889;51.442;6.408;2022-09-09T06:24:03;0.65;;;0.65;;
50002;SDS011;35889;51.442;6.408;2022-09-09T06:26:33;0.60;;;0.60;;
50002;SDS011;35889;51.442;6.408;2022-09-09T06:29:03;0.70;;;0.70;;
50002;SDS011;35889;51.442;6.408;2022-09-09T06:31:30;0.63;;;0.63;;
50002;SDS011;35889;51.442;6.408;2022-09-09T06:34:02;0.70;;;0.70;;
50002;SDS011;35889;51.442;6.408;2022-09-09T06:36:30;0.70;;;0.70;;
50002;SDS011;35889;51.442;6.408;2022-09-09T06:38:59;0.75;;;0.75;;
50002;SDS011;35889;51.442;6.408;2022-09-09T06:41:26;0.70;;;0.70;;
50002;SDS011;35889;51.442;6.408;2022-09-09T06:43:55;0.70;;;0.70;;
50002;SDS011;35889;51.442;6.408;2022-09-09T06:46:28;0.70;;;0.70;;
50002;SDS011;35889;51.442;6.408;2022-09-09T06:48:56;0.68;;;0.68;;
50002;SDS011;35889;51.442;6.408;2022-09-09T06:51:25;0.70;;;0.70;;
50002;SDS011;35889;51.442;6.408;2022-09-09T06:53:52;0.60;;;0.60;;
50002;SDS011;35889;51.442;6.408;2022-09-09T06:56:23;0.70;;;0.70;;
50002;SDS011;35889;51.442;6.408;2022-09-09T06:58:51;0.70;;;0.70;;
50002;SDS011;35889;51.442;6.408;2022-09-09T07:01:24;0.70;;;0.70;;
50002;SDS011;35889;51.442;6.408;2022-09-09T07:03:51;0.80;;;0.80;;
50002;SDS011;35889;51.442;6.408;2022-09-09T07:06:23;0.80;;;0.80;;
50002;SDS011;35889;51.442;6.408;2022-09-09T07:08:51;0.70;;;0.70;;
50002;SDS011;35889;51.442;6.408;2022-09-09T07:11:19;0.70;;;0.70;;
50002;SDS011;35889;51.442;6.408;2022-09-09T07:13:45;0.60;;;0.60;;
50002;SDS011;35889;51.442;6.408;2022-09-09T07:16:12;0.70;;;0.70;;
50002;SDS011;35889;51.442;6.408;2022-09-09T07:18:39;0.70;;;0.70;;
50002;SDS011;35889;51.442;6.408;2022-09-09T07:21:10;0.70;;;0.70;;
50002;SDS011;35889;51.442;6.408;2022-09-09T07:23:40;0.70;;;0.70;;
50002;SDS011;35889;51.442;6.408;2022-09-09T07:26:09;0.80;;;0.80;;
50002;SDS011;35889;51.442;6.408;2022-09-09T07:28:39;0.70;;;0.70;;
50002;SDS011;35889;51.442;6.408;2022-09-09T07:31:07;0.75;;;0.75;;
50002;SDS011;35889;51.442;6.408;2022-09-09T07:33:40;0.80;;;0.80;;
50002;SDS011;35889;51.442;6.408;2022-09-09T07:36:07;0.70;;;0.70;;
50002;SDS011;35889;51.442;6.408;2022-09-09T07:38:41;0.80;;;0.80;;
50002;SDS011;35889;51.442;6.408;2022-09-09T07:41:09;0.70;;;0.70;;
50002;SDS011;35889;51.442;6.408;2022-09-09T07:43:38;0.80;;;0.80;;
50002;SDS011;35889;51.442;6.408;2022-09-09T07:46:05;0.70;;;0.70;;
50002;SDS011;35889;51.442;6.408;2022-09-09T07:48:31;0.70;;;0.70;;
50002;SDS011;35889;51.442;6.408;2022-09-09T07:51:19;0.70;;;0.70;;
50002;SDS011;35889;51.442;6.408;2022-09-09T07:53:48;0.73;;;0.73;;
50002;SDS011;35889;51.442;6.408;2022-09-09T07:56:18;0.80;;;0.80;;
50002;SDS011;35889;51.442;6.408;2022-09-09T07:58:47;0.80;;;0.80;;
50002;SDS011;35889;51.442;6.408;2022-09-09T08:01:14;0.70;;;0.70;;
50002;SDS011;35889;51.442;6.408;2022-09-09T08:04:13;0.80;;;0.80;;
50002;SDS011;35889;51.442;6.408;2022-09-09T08:06:45;0.70;;;0.70;;
50002;SDS011;35889;51.442;6.408;2022-09-09T08:09:16;0.70;;;0.70;;
50002;SDS011;35889;51.442;6.408;2022-09-09T08:11:43;0.80;;;0.80;;
50002;SDS011;35889;51.442;6.408;2022-09-09T08:14:09;0.70;;;0.70;;
50002;SDS011;35889;51.442;6.408;2022-09-09T08:16:40;0.70;;;0.70;;
50002;SDS011;35889;51.442;6.408;2022-09-09T08:19:08;0.70;;;0.70;;
50002;SDS011;35889;51.442;6.408;2022-09-09T08:21:34;0.80;;;0.80;;
50002;SDS011;35889;51.442;6.408;2022-09-09T08:24:02;0.80;;;0.80;;
50002;SDS011;35889;51.442;6.408;2022-09-09T08:26:29;0.70;;;0.70;;
50002;SDS011;35889;51.442;6.408;2022-09-09T08:29:08;0.70;;;0.70;;
50002;SDS011;35889;51.442;6.408;2022-09-09T08:31:36;0.70;;;0.70;;
50002;SDS011;35889;51.442;6.408;2022-09-09T08:34:05;0.70;;;0.70;;
50002;SDS011;35889;51.442;6.408;2022-09-09T08:36:33;0.70;;;0.70;;
50002;SDS011;35889;51.442;6.408;2022-09-09T08:39:00;0.70;;;0.70;;
50002;SDS011;35889;51.442;6.408;2022-09-09T08:44:26;0.80;;;0.80;;
50002;SDS011;35889;51.442;6.408;2022-09-09T08:53:21;0.80;;;0.80;;
50002;SDS011;35889;51.442;6.408;2022-09-09T08:55:56;0.80;;;0.80;;
50002;SDS011;35889;51.442;6.408;2022-09-09T08:58:41;0.70;;;0.70;;
50002;SDS011;35889;51.442;6.408;2022-09-09T09:12:45;0.70;;;0.70;;
50002;SDS011;35889;51.442;6.408;2022-09-09T09:15:18;0.70;;;0.70;;
50002;SDS011;35889;51.442;6.408;2022-09-09T09:17:47;0.80;;;0.80;;
50002;SDS011;35889;51.442;6.408;2022-09-09T09:20:14;0.80;;;0.80;;
50002;SDS011;35889;51.442;6.408;2022-09-09T09:22:51;0.80;;;0.80;;
50002;SDS011;35889;51.442;6.408;2022-09-09T09:25:19;0.80;;;0.80;;
50002;SDS011;35889;51.442;6.408;2022-09-09T09:27:59;0.80;;;0.80;;
50002;SDS011;35889;51.442;6.408;2022-09-09T09:30:29;0.70;;;0.70;;
50002;SDS011;35889;51.442;6.408;2022-09-09T09:33:12;0.70;;;0.70;;
50002;SDS011;35889;51.442;6.408;2022-09-09T09:35:48;0.70;;;0.70;;
50002;SDS011;35889;51.442;6.408;2022-09-09T09:38:18;0.70;;;0.70;;
50002;SDS011;35889;51.442;6.408;2022-09-09T09:40:55;0.70;;;0.70;;
50002;SDS011;35889;51.442;6.408;2022-09-09T09:43:24;0.80;;;0.80;;
50002;SDS011;35889;51.442;6.408;2022-09-09T09:45:59;0.70;;;0.70;;
50002;SDS011;35889;51.442;6.408;2022-09-09T09:48:26;0.70;;;0.70;;
50002;SDS011;35889;51.442;6.408;2022-09-09T09:51:25;0.80;;;0.80;;
50002;SDS011;35889;51.442;6.408;2022-09-09T09:53:44;0.70;;;0.70;;
50002;SDS011;35889;51.442;6.408;2022-09-09T09:56:26;0.70;;;0.70;;
50002;SDS011;35889;51.442;6.408;2022-09-09T09:58:54;0.80;;;0.80;;
50002;SDS011;35889;51.442;6.408;2022-09-09T10:01:28;0.77;;;0.77;;
50002;SDS011;35889;51.442;6.408;2022-09-09T10:04:12;0.70;;;0.70;;
50002;SDS011;35889;51.442;6.408;2022-09-09T10:06:41;0.70;;;0.70;;
50002;SDS011;35889;51.442;6.408;2022-09-09T10:09:23;0.70;;;0.70;;
50002;SDS011;35889;51.442;6.408;2022-09-09T10:11:55;0.80;;;0.80;;
50002;SDS011;35889;51.442;6.408;2022-09-09T10:22:50;0.70;;;0.70;;
50002;SDS011;35889;51.442;6.408;2022-09-09T10:25:21;0.80;;;0.80;;
50002;SDS011;35889;51.442;6.408;2022-09-09T10:33:09;0.65;;;0.65;;
50002;SDS011;35889;51.442;6.408;2022-09-09T10:38:40;0.70;;;0.70;;
50002;SDS011;35889;51.442;6.408;2022-09-09T10:41:14;0.70;;;0.70;;
50002;SDS011;35889;51.442;6.408;2022-09-09T10:52:58;0.70;;;0.70;;
50002;SDS011;35889;51.442;6.408;2022-09-09T10:55:53;0.70;;;0.70;;
50002;SDS011;35889;51.442;6.408;2022-09-09T10:58:21;0.70;;;0.70;;
50002;SDS011;35889;51.442;6.408;2022-09-09T11:00:54;0.80;;;0.80;;
50002;SDS011;35889;51.442;6.408;2022-09-09T11:03:26;0.80;;;0.80;;
50002;SDS011;35889;51.442;6.408;2022-09-09T11:06:01;0.80;;;0.80;;
50002;SDS011;35889;51.442;6.408;2022-09-09T11:08:30;0.80;;;0.80;;
50002;SDS011;35889;51.442;6.408;2022-09-09T11:11:00;0.80;;;0.80;;
50002;SDS011;35889;51.442;6.408;2022-09-09T11:18:46;0.70;;;0.70;;
50002;SDS011;35889;51.442;6.408;2022-09-09T11:21:29;0.70;;;0.70;;
50002;SDS011;35889;51.442;6.408;2022-09-09T11:23:59;0.70;;;0.70;;
50002;SDS011;35889;51.442;6.408;2022-09-09T11:26:33;0.70;;;0.70;;
50002;SDS011;35889;51.442;6.408;2022-09-09T11:35:07;0.80;;;0.80;;
50002;SDS011;35889;51.442;6.408;2022-09-09T11:40:53;0.70;;;0.70;;
50002;SDS011;35889;51.442;6.408;2022-09-09T11:43:25;0.77;;;0.77;;
50002;SDS011;35889;51.442;6.408;2022-09-09T11:45:54;0.77;;;0.77;;
50002;SDS011;35889;51.442;6.408;2022-09-09T11:50:59;0.70;;;0.70;;
50002;SDS011;35889;51.442;6.408;2022-09-09T11:53:30;0.70;;;0.70;;
50002;SDS011;35889;51.442;6.408;2022-09-09T11:58:34;0.60;;;0.60;;
50002;SDS011;35889;51.442;6.408;2022-09-09T12:01:12;0.70;;;0.70;;
50002;SDS011;35889;51.442;6.408;2022-09-09T12:08:39;0.60;;;0.60;;
50002;SDS011;35889;51.442;6.408;2022-09-09T12:11:07;0.60;;;0.60;;
50002;SDS011;35889;51.442;6.408;2022-09-09T12:13:32;0.60;;;0.60;;
50002;SDS011;35889;51.442;6.408;2022-09-09T12:16:01;0.70;;;0.70;;
50002;SDS011;35889;51.442;6.408;2022-09-09T12:18:33;0.70;;;0.70;;
50002;SDS011;35889;51.442;6.408;2022-09-09T12:23:47;0.70;;;0.70;;
50002;SDS011;35889;51.442;6.408;2022-09-09T12:26:24;0.60;;;0.60;;
50002;SDS011;35889;51.442;6.408;2022-09-09T12:29:00;0.80;;;0.80;;
50002;SDS011;35889;51.442;6.408;2022-09-09T12:31:32;0.70;;;0.70;;
50002;SDS011;35889;51.442;6.408;2022-09-09T12:34:15;0.80;;;0.80;;
50002;SDS011;35889;51.442;6.408;2022-09-09T12:36:45;0.80;;;0.80;;
50002;SDS011;35889;51.442;6.408;2022-09-09T12:41:50;0.70;;;0.70;;
50002;SDS011;35889;51.442;6.408;2022-09-09T12:44:22;0.70;;;0.70;;
50002;SDS011;35889;51.442;6.408;2022-09-09T12:46:48;0.70;;;0.70;;
50002;SDS011;35889;51.442;6.408;2022-09-09T12:49:30;0.70;;;0.70;;
50002;SDS011;35889;51.442;6.408;2022-09-09T12:52:01;0.70;;;0.70;;
50002;SDS011;35889;51.442;6.408;2022-09-09T12:54:35;0.70;;;0.70;;
50002;SDS011;35889;51.442;6.408;2022-09-09T12:57:01;0.70;;;0.70;;
50002;SDS011;35889;51.442;6.408;2022-09-09T12:59:37;0.80;;;0.80;;
50002;SDS011;35889;51.442;6.408;2022-09-09T13:04:51;0.77;;;0.77;;
50002;SDS011;35889;51.442;6.408;2022-09-09T13:07:18;0.70;;;0.70;;
50002;SDS011;35889;51.442;6.408;2022-09-09T13:09:45;0.70;;;0.70;;
50002;SDS011;35889;51.442;6.408;2022-09-09T13:12:16;0.70;;;0.70;;
50002;SDS011;35889;51.442;6.408;2022-09-09T13:14:44;0.70;;;0.70;;
50002;SDS011;35889;51.442;6.408;2022-09-09T13:17:22;0.70;;;0.70;;
50002;SDS011;35889;51.442;6.408;2022-09-09T13:19:49;0.70;;;0.70;;
50002;SDS011;35889;51.442;6.408;2022-09-09T13:24:59;0.70;;;0.70;;
50002;SDS011;35889;51.442;6.408;2022-09-09T13:27:32;0.80;;;0.80;;
50002;SDS011;35889;51.442;6.408;2022-09-09T13:29:59;0.80;;;0.80;;
50002;SDS011;35889;51.442;6.408;2022-09-09T13:32:25;0.70;;;0.70;;
50002;SDS011;35889;51.442;6.408;2022-09-09T13:35:00;0.80;;;0.80;;
50002;SDS011;35889;51.442;6.408;2022-09-09T13:40:06;0.80;;;0.80;;
50002;SDS011;35889;51.442;6.408;2022-09-09T13:42:40;0.70;;;0.70;;
50002;SDS011;35889;51.442;6.408;2022-09-09T13:45:17;0.70;;;0.70;;
50002;SDS011;35889;51.442;6.408;2022-09-09T13:47:47;0.70;;;0.70;;
50002;SDS011;35889;51.442;6.408;2022-09-09T13:50:20;0.80;;;0.80;;
50002;SDS011;35889;51.442;6.408;2022-09-09T13:52:49;0.68;;;0.68;;
50002;SDS011;35889;51.442;6.408;2022-09-09T13:55:16;0.70;;;0.70;;
50002;SDS011;35889;51.442;6.408;2022-09-09T13:57:52;0.70;;;0.70;;
50002;SDS011;35889;51.442;6.408;2022-09-09T14:00:17;0.70;;;0.70;;
50002;SDS011;35889;51.442;6.408;2022-09-09T14:02:43;0.60;;;0.60;;
50002;SDS011;35889;51.442;6.408;2022-09-09T14:05:09;0.63;;;0.63;;
50002;SDS011;35889;51.442;6.408;2022-09-09T14:07:36;0.70;;;0.70;;
50002;SDS011;35889;51.442;6.408;2022-09-09T14:10:04;0.60;;;0.60;;
50002;SDS011;35889;51.442;6.408;2022-09-09T14:12:30;0.70;;;0.70;;
50002;SDS011;35889;51.442;6.408;2022-09-09T14:14:55;0.70;;;0.70;;
50002;SDS011;35889;51.442;6.408;2022-09-09T14:17:21;0.60;;;0.60;;
50002;SDS011;35889;51.442;6.408;2022-09-09T14:19:47;0.63;;;0.63;;
50002;SDS011;35889;51.442;6.408;2022-09-09T14:22:12;0.63;;;0.63;;
50002;SDS011;35889;51.442;6.408;2022-09-09T14:24:38;0.65;;;0.65;;
50002;SDS011;35889;51.442;6.408;2022-09-09T14:27:03;0.60;;;0.60;;
50002;SDS011;35889;51.442;6.408;2022-09-09T14:29:29;0.60;;;0.60;;
50002;SDS011;35889;51.442;6.408;2022-09-09T14:31:54;0.63;;;0.63;;
50002;SDS011;35889;51.442;6.408;2022-09-09T14:34:20;0.70;;;0.70;;
50002;SDS011;35889;51.442;6.408;2022-09-09T14:36:45;0.60;;;0.60;;
50002;SDS011;35889;51.442;6.408;2022-09-09T14:39:12;0.70;;;0.70;;
50002;SDS011;35889;51.442;6.408;2022-09-09T14:41:37;0.70;;;0.70;;
50002;SDS011;35889;51.442;6.408;2022-09-09T14:44:03;0.80;;;0.80;;
50002;SDS011;35889;51.442;6.408;2022-09-09T14:46:28;0.70;;;0.70;;
50002;SDS011;35889;51.442;6.408;2022-09-09T14:48:54;0.80;;;0.80;;
50002;SDS011;35889;51.442;6.408;2022-09-09T14:51:20;0.80;;;0.80;;
50002;SDS011;35889;51.442;6.408;2022-09-09T14:53:47;0.70;;;0.70;;
50002;SDS011;35889;51.442;6.408;2022-09-09T14:56:14;0.70;;;0.70;;
50002;SDS011;35889;51.442;6.408;2022-09-09T14:58:41;0.70;;;0.70;;
50002;SDS011;35889;51.442;6.408;2022-09-09T15:01:10;0.70;;;0.70;;
50002;SDS011;35889;51.442;6.408;2022-09-09T15:06:09;0.80;;;0.80;;
50002;SDS011;35889;51.442;6.408;2022-09-09T15:08:37;0.90;;;0.90;;
50002;SDS011;35889;51.442;6.408;2022-09-09T15:11:03;0.90;;;0.90;;
50002;SDS011;35889;51.442;6.408;2022-09-09T15:13:30;0.80;;;0.80;;
50002;SDS011;35889;51.442;6.408;2022-09-09T15:15:56;1.00;;;1.00;;
50002;SDS011;35889;51.442;6.408;2022-09-09T15:18:28;1.10;;;1.10;;
50002;SDS011;35889;51.442;6.408;2022-09-09T15:20:54;0.90;;;0.90;;
50002;SDS011;35889;51.442;6.408;2022-09-09T15:23:19;1.10;;;1.10;;
50002;SDS011;35889;51.442;6.408;2022-09-09T15:25:52;1.10;;;1.10;;
50002;SDS011;35889;51.442;6.408;2022-09-09T15:28:21;1.10;;;1.10;;
50002;SDS011;35889;51.442;6.408;2022-09-09T15:30:48;0.70;;;0.70;;
50002;SDS011;35889;51.442;6.408;2022-09-09T15:35:42;0.77;;;0.77;;
50002;SDS011;35889;51.442;6.408;2022-09-09T15:38:08;0.80;;;0.80;;
50002;SDS011;35889;51.442;6.408;2022-09-09T15:40:33;0.70;;;0.70;;
50002;SDS011;35889;51.442;6.408;2022-09-09T15:42:59;0.70;;;0.70;;
50002;SDS011;35889;51.442;6.408;2022-09-09T15:45:24;0.70;;;0.70;;
50002;SDS011;35889;51.442;6.408;2022-09-09T15:47:49;0.75;;;0.75;;
50002;SDS011;35889;51.442;6.408;2022-09-09T15:50:15;0.80;;;0.80;;
50002;SDS011;35889;51.442;6.408;2022-09-09T15:52:41;0.70;;;0.70;;
50002;SDS011;35889;51.442;6.408;2022-09-09T15:55:06;0.70;;;0.70;;
50002;SDS011;35889;51.442;6.408;2022-09-09T15:57:33;0.80;;;0.80;;
50002;SDS011;35889;51.442;6.408;2022-09-09T15:59:59;0.80;;;0.80;;
50002;SDS011;35889;51.442;6.408;2022-09-09T16:02:25;0.80;;;0.80;;
50002;SDS011;35889;51.442;6.408;2022-09-09T16:04:51;0.70;;;0.70;;
50002;SDS011;35889;51.442;6.408;2022-09-09T16:07:16;0.70;;;0.70;;
50002;SDS011;35889;51.442;6.408;2022-09-09T16:09:42;0.70;;;0.70;;
50002;SDS011;35889;51.442;6.408;2022-09-09T16:12:08;0.70;;;0.70;;
50002;SDS011;35889;51.442;6.408;2022-09-09T16:14:38;0.80;;;0.80;;
50002;SDS011;35889;51.442;6.408;2022-09-09T16:17:04;0.70;;;0.70;;
50002;SDS011;35889;51.442;6.408;2022-09-09T16:19:30;0.70;;;0.70;;
50002;SDS011;35889;51.442;6.408;2022-09-09T16:21:56;0.70;;;0.70;;
50002;SDS011;35889;51.442;6.408;2022-09-09T16:24:21;0.70;;;0.70;;
50002;SDS011;35889;51.442;6.408;2022-09-09T16:26:49;0.70;;;0.70;;
50002;SDS011;35889;51.442;6.408;2022-09-09T16:29:16;0.70;;;0.70;;
50002;SDS011;35889;51.442;6.408;2022-09-09T16:31:43;0.70;;;0.70;;
50002;SDS011;35889;51.442;6.408;2022-09-09T16:34:09;0.70;;;0.70;;
50002;SDS011;35889;51.442;6.408;2022-09-09T16:36:35;0.70;;;0.70;;
50002;SDS011;35889;51.442;6.408;2022-09-09T16:39:04;0.60;;;0.60;;
50002;SDS011;35889;51.442;6.408;2022-09-09T16:41:31;0.70;;;0.70;;
50002;SDS011;35889;51.442;6.408;2022-09-09T16:43:58;0.70;;;0.70;;
50002;SDS011;35889;51.442;6.408;2022-09-09T16:46:25;0.70;;;0.70;;
50002;SDS011;35889;51.442;6.408;2022-09-09T16:48:52;0.70;;;0.70;;
50002;SDS011;35889;51.442;6.408;2022-09-09T16:53:46;0.70;;;0.70;;
50002;SDS011;35889;51.442;6.408;2022-09-09T16:56:16;0.70;;;0.70;;
50002;SDS011;35889;51.442;6.408;2022-09-09T16:58:48;0.70;;;0.70;;
50002;SDS011;35889;51.442;6.408;2022-09-09T17:01:15;0.70;;;0.70;;
50002;SDS011;35889;51.442;6.408;2022-09-09T17:03:40;0.60;;;0.60;;
50002;SDS011;35889;51.442;6.408;2022-09-09T17:06:12;0.68;;;0.68;;
50002;SDS011;35889;51.442;6.408;2022-09-09T17:08:39;0.63;;;0.63;;
50002;SDS011;35889;51.442;6.408;2022-09-09T17:11:16;0.70;;;0.70;;
50002;SDS011;35889;51.442;6.408;2022-09-09T17:13:44;0.70;;;0.70;;